Time;durP1;ratioP1;P1;durP2;ratioP2;P2;SDS_P1;SDS_P2;PMS_P1;PMS_P2;Temp;Humidity;BMP_temperature;BMP_pressure;BME280_temperature;BME280_humidity;BME280_pressure;Samples;Min_cycle;Max_cycle;Signal;HPM_P1;HPM_P2
2022/09/27 00:00:42;;;;;;;0.63;0.33;;;18.50;99.90;;;18.66;55.11;99146.19;4866186;28;99166;-54
2022/09/27 00:03:10;;;;;;;0.10;0.10;;;18.50;99.90;;;18.61;54.86;99143.91;4864209;28;100659;-51
2022/09/27 00:05:36;;;;;;;0.10;0.10;;;18.40;99.90;;;18.65;54.74;99149.84;4866400;28;99739;-56
2022/09/27 00:08:02;;;;;;;0.27;0.27;;;18.50;99.90;;;18.61;53.93;99149.25;4864015;28;99310;-53
2022/09/27 00:10:28;;;;;;;0.00;0.00;;;18.40;99.90;;;18.59;55.03;99155.72;4865938;28;100985;-55
2022/09/27 00:12:54;;;;;;;0.10;0.00;;;18.40;99.90;;;18.64;55.04;99158.84;4865436;28;98310;-56
2022/09/27 00:15:20;;;;;;;0.03;0.00;;;18.50;99.90;;;18.65;54.81;99161.38;4858810;28;97138;-54
2022/09/27 00:17:50;;;;;;;0.10;0.10;;;18.50;99.90;;;18.62;53.44;99172.31;4868047;28;97058;-54
2022/09/27 00:20:22;;;;;;;0.00;0.00;;;18.50;99.90;;;18.61;54.29;99181.31;4865703;28;97327;-49
2022/09/27 00:22:48;;;;;;;0.63;0.23;;;18.50;99.90;;;18.62;54.87;99183.00;4867005;28;97231;-53
2022/09/27 00:25:15;;;;;;;0.07;0.00;;;18.50;99.90;;;18.62;55.07;99183.00;4864202;28;97901;-55
2022/09/27 00:27:41;;;;;;;0.30;0.10;;;18.50;99.90;;;18.61;54.85;99185.81;4867122;28;97568;-54
2022/09/27 00:30:08;;;;;;;0.10;0.10;;;18.50;99.90;;;18.62;54.81;99183.00;4865850;28;100076;-55
2022/09/27 00:32:34;;;;;;;0.00;0.00;;;18.50;99.90;;;18.55;54.23;99187.22;4867790;28;96906;-52
2022/09/27 00:35:00;;;;;;;0.00;0.00;;;18.50;99.90;;;18.52;54.82;99192.84;4863908;28;98094;-54
2022/09/27 00:37:26;;;;;;;1.60;0.10;;;18.40;99.90;;;18.51;55.16;99191.13;4866865;28;100821;-52
2022/09/27 00:39:52;;;;;;;0.00;0.00;;;18.40;99.90;;;18.54;54.20;99196.22;4867282;28;98594;-58
2022/09/27 00:42:18;;;;;;;0.00;0.00;;;18.40;99.90;;;18.56;55.03;99199.59;4866943;28;97666;-53
2022/09/27 00:45:13;;;;;;;0.07;0.07;;;18.40;99.90;;;18.47;51.68;99195.06;4866636;28;98381;-56
2022/09/27 00:47:51;;;;;;;0.10;0.10;;;18.40;99.90;;;18.51;54.85;99195.63;4862757;28;101043;-53
2022/09/27 00:50:28;;;;;;;0.00;0.00;;;18.30;99.90;;;18.52;54.70;99200.00;4867268;28;97854;-53
2022/09/27 00:53:32;;;;;;;0.00;0.00;;;18.40;99.90;;;18.53;54.54;99199.88;4866965;28;99694;-51
2022/09/27 00:56:02;;;;;;;0.00;0.00;;;18.40;99.90;;;18.52;54.92;99198.19;4865591;28;100377;-54
2022/09/27 00:58:36;;;;;;;0.00;0.00;;;18.40;99.90;;;18.51;54.26;99193.81;4870660;28;100061;-50
2022/09/27 01:01:09;;;;;;;0.30;0.10;;;18.30;99.90;;;18.46;52.24;99192.53;4883491;28;98158;-54
2022/09/27 01:03:51;;;;;;;0.20;0.20;;;18.30;99.90;;;18.52;54.88;99195.53;4892519;28;97420;-53
2022/09/27 01:06:21;;;;;;;0.00;0.00;;;18.40;99.90;;;18.50;55.07;99193.94;4891932;28;102529;-54
2022/09/27 01:08:47;;;;;;;0.00;0.00;;;18.30;99.90;;;18.49;54.60;99187.75;4893780;28;97586;-52
2022/09/27 01:11:30;;;;;;;0.00;0.00;;;18.30;99.90;;;18.51;55.02;99196.47;4890694;28;97227;-55
2022/09/27 01:14:10;;;;;;;0.20;0.20;;;18.30;99.90;;;18.43;53.46;99205.19;4892141;28;96986;-53
2022/09/27 01:17:13;;;;;;;0.00;0.00;;;18.30;99.90;;;18.40;54.59;99199.31;4889171;28;97267;-54
2022/09/27 01:20:22;;;;;;;0.13;0.00;;;18.20;99.90;;;18.46;54.84;99213.91;4887421;28;102388;-51
2022/09/27 01:23:00;;;;;;;0.07;0.07;;;18.30;99.90;;;18.40;54.58;99210.81;4890926;28;97369;-53
2022/09/27 01:25:44;;;;;;;1.90;0.33;;;18.30;99.90;;;18.38;55.15;99206.59;4897521;28;97093;-54
2022/09/27 01:28:20;;;;;;;0.67;0.10;;;18.30;99.90;;;18.45;54.94;99213.06;4885516;28;98113;-52
2022/09/27 01:31:31;;;;;;;0.33;0.23;;;18.40;99.90;;;18.44;54.85;99211.38;4893632;28;97868;-52
2022/09/27 01:34:26;;;;;;;0.10;0.10;;;18.40;99.90;;;18.45;54.78;99207.72;4886715;28;96863;-51
2022/09/27 01:37:19;;;;;;;0.00;0.00;;;18.40;99.90;;;18.51;54.62;99217.84;4902650;28;97307;-53
2022/09/27 01:40:31;;;;;;;0.60;0.20;;;18.40;99.90;;;18.51;54.27;99217.84;4900694;28;102155;-53
2022/09/27 01:43:18;;;;;;;0.10;0.10;;;18.50;99.90;;;18.52;54.61;99214.22;4891926;28;100005;-50
2022/09/27 01:46:17;;;;;;;0.00;0.00;;;18.50;99.90;;;18.58;53.96;99216.31;4896447;28;97681;-52
2022/09/27 01:48:47;;;;;;;0.00;0.00;;;18.50;99.90;;;18.58;54.23;99212.78;4890549;28;96964;-50
2022/09/27 01:51:22;;;;;;;0.20;0.00;;;18.50;99.90;;;18.61;54.52;99213.34;4900408;28;97370;-50
2022/09/27 01:53:53;;;;;;;0.20;0.20;;;18.50;99.90;;;18.65;54.23;99217.44;4895575;28;97225;-53
2022/09/27 01:56:44;;;;;;;0.00;0.00;;;18.60;99.90;;;18.66;54.20;99212.94;4896091;28;97064;-52
2022/09/27 01:59:17;;;;;;;0.00;0.00;;;18.50;99.90;;;18.70;53.95;99219.72;4895793;28;97645;-54
2022/09/27 02:01:47;;;;;;;0.20;0.20;;;18.60;99.90;;;18.72;53.89;99215.91;4896596;28;97597;-52
2022/09/27 02:04:21;;;;;;;0.03;0.03;;;18.60;99.90;;;18.60;52.18;99227.69;4899128;28;100776;-53
2022/09/27 02:06:52;;;;;;;0.10;0.07;;;18.50;99.90;;;18.57;54.02;99222.63;4895250;28;97336;-50
2022/09/27 02:09:37;;;;;;;0.20;0.10;;;18.30;99.90;;;18.58;54.41;99224.31;4893293;28;97252;-54
2022/09/27 02:12:09;;;;;;;0.00;0.00;;;18.30;99.90;;;18.55;52.94;99224.59;4890312;28;99244;-55
2022/09/27 02:14:53;;;;;;;0.17;0.17;;;18.40;99.90;;;18.60;54.49;99214.34;4893526;28;97268;-53
2022/09/27 02:17:43;;;;;;;0.00;0.00;;;18.40;99.90;;;18.57;53.77;99222.63;4898173;28;96900;-53
2022/09/27 02:20:34;;;;;;;0.23;0.10;;;18.40;99.90;;;18.56;53.76;99230.78;4876435;28;97152;-54
2022/09/27 02:23:32;;;;;;;0.00;0.00;;;18.50;99.90;;;18.62;54.07;99228.38;4887153;28;97466;-53
2022/09/27 02:26:13;;;;;;;0.20;0.20;;;18.50;99.90;;;18.54;52.82;99228.25;4891871;28;97228;-54
2022/09/27 02:29:02;;;;;;;0.10;0.07;;;18.50;99.90;;;18.42;54.53;99234.69;4899819;28;96612;-52
2022/09/27 02:31:28;;;;;;;0.20;0.20;;;18.30;99.90;;;18.47;54.76;99227.09;4890922;28;97163;-52
2022/09/27 02:34:21;;;;;;;0.17;0.00;;;18.40;99.90;;;18.41;52.78;99222.34;4893127;28;97406;-52
2022/09/27 02:36:47;;;;;;;0.27;0.20;;;18.40;99.90;;;18.44;54.78;99238.06;4897912;28;97481;-53
2022/09/27 02:39:14;;;;;;;0.20;0.10;;;18.30;99.90;;;18.51;53.62;99225.00;4897758;28;97237;-55
2022/09/27 02:41:40;;;;;;;0.10;0.10;;;18.40;99.90;;;18.55;54.50;99223.75;4896704;28;97382;-52
2022/09/27 02:44:10;;;;;;;0.10;0.10;;;18.40;99.90;;;18.62;54.18;99236.41;4897141;28;98237;-49
2022/09/27 02:47:11;;;;;;;0.10;0.07;;;18.50;99.90;;;18.66;54.07;99251.22;4892669;28;97032;-52
2022/09/27 02:50:03;;;;;;;0.10;0.00;;;18.50;99.90;;;18.64;54.03;99245.13;4905700;28;97314;-51
2022/09/27 02:52:55;;;;;;;0.10;0.10;;;18.50;99.90;;;18.60;54.39;99248.19;4894943;28;97396;-49
2022/09/27 02:55:52;;;;;;;0.10;0.10;;;18.40;99.90;;;18.61;54.26;99250.72;4892123;28;102389;-49
2022/09/27 02:58:45;;;;;;;0.10;0.10;;;18.40;99.90;;;18.55;52.36;99245.97;4892430;28;99871;-49
2022/09/27 03:02:02;;;;;;;0.10;0.00;;;18.40;99.90;;;18.50;54.17;99250.84;4894201;28;97137;-54
2022/09/27 03:05:00;;;;;;;0.27;0.10;;;18.30;99.90;;;18.56;54.49;99252.16;4911947;28;98807;-51
2022/09/27 03:07:26;;;;;;;0.23;0.20;;;18.40;99.90;;;18.55;54.54;99251.31;4903771;28;101943;-55
2022/09/27 03:09:53;;;;;;;0.20;0.10;;;18.40;99.90;;;18.60;54.39;99254.38;4893233;28;98347;-51
2022/09/27 03:12:26;;;;;;;0.00;0.00;;;18.50;99.90;;;18.62;54.39;99263.09;4890919;28;97473;-52
2022/09/27 03:14:59;;;;;;;0.10;0.10;;;18.50;99.90;;;18.61;53.76;99272.09;4893176;28;99385;-58
2022/09/27 03:17:25;;;;;;;0.10;0.07;;;18.50;99.90;;;18.64;54.04;99262.97;4894896;28;102937;-49
2022/09/27 03:19:51;;;;;;;0.20;0.10;;;18.50;99.90;;;18.60;54.19;99261.56;4887218;28;98591;-54
2022/09/27 03:22:18;;;;;;;0.20;0.07;;;18.40;99.90;;;18.58;54.05;99264.38;4892931;28;97066;-51
2022/09/27 03:24:44;;;;;;;0.00;0.00;;;18.50;99.90;;;18.54;53.75;99270.97;4900308;28;97471;-49
2022/09/27 03:27:11;;;;;;;0.17;0.07;;;18.40;99.90;;;18.60;54.09;99272.22;4893373;28;97085;-53
2022/09/27 03:29:37;;;;;;;0.00;0.00;;;18.50;99.90;;;18.58;53.97;99276.88;4894340;28;97245;-50
2022/09/27 03:32:03;;;;;;;0.30;0.10;;;18.50;99.90;;;18.51;53.41;99281.91;4889752;28;98186;-54
2022/09/27 03:34:29;;;;;;;0.07;0.07;;;18.50;99.90;;;18.45;54.57;99274.47;4897457;28;97080;-53
2022/09/27 03:36:55;;;;;;;0.00;0.00;;;18.40;99.90;;;18.47;53.83;99280.50;4890170;28;98116;-53
2022/09/27 03:39:21;;;;;;;0.10;0.00;;;18.50;99.90;;;18.42;52.90;99282.75;4898257;28;97223;-52
2022/09/27 03:41:47;;;;;;;0.30;0.10;;;18.40;99.90;;;18.48;54.02;99282.19;4896197;28;97174;-53
2022/09/27 03:44:13;;;;;;;0.17;0.13;;;18.40;99.90;;;18.39;52.63;99277.69;4895794;28;102004;-53
2022/09/27 03:46:38;;;;;;;0.43;0.30;;;18.40;99.90;;;18.26;54.47;99280.63;4897270;28;99248;-54
2022/09/27 03:49:04;;;;;;;0.10;0.00;;;18.20;99.90;;;18.26;54.37;99283.28;4896772;28;96909;-52
2022/09/27 03:51:30;;;;;;;0.00;0.00;;;18.20;99.90;;;18.31;54.17;99280.19;4897033;28;97443;-53
2022/09/27 03:53:56;;;;;;;0.20;0.13;;;18.30;99.90;;;18.37;54.28;99280.50;4885718;28;97073;-55
2022/09/27 03:56:22;;;;;;;0.00;0.00;;;18.40;99.90;;;18.33;54.18;99283.56;4896307;28;97636;-56
2022/09/27 03:58:48;;;;;;;0.00;0.00;;;18.30;99.90;;;18.34;54.38;99293.25;4888510;28;96800;-55
2022/09/27 04:01:14;;;;;;;0.00;0.00;;;18.30;99.90;;;18.35;52.73;99292.28;4894276;28;97270;-55
2022/09/27 04:03:40;;;;;;;0.00;0.00;;;18.30;99.90;;;18.38;54.43;99292.03;4892587;28;97295;-53
2022/09/27 04:06:06;;;;;;;0.00;0.00;;;18.30;99.90;;;18.42;52.99;99288.94;4895073;28;97341;-54
2022/09/27 04:08:32;;;;;;;0.03;0.03;;;18.30;99.90;;;18.40;53.36;99295.41;4896228;28;96947;-55
2022/09/27 04:10:58;;;;;;;0.00;0.00;;;18.40;99.90;;;18.48;53.55;99302.69;4891022;28;97185;-53
2022/09/27 04:13:24;;;;;;;0.23;0.10;;;18.40;99.90;;;18.48;53.91;99295.53;4897519;28;96914;-55
2022/09/27 04:15:51;;;;;;;0.03;0.00;;;18.40;99.90;;;18.47;53.61;99301.84;4892327;28;97021;-52
2022/09/27 04:18:17;;;;;;;0.10;0.10;;;18.40;99.90;;;18.51;53.10;99297.94;4890989;28;102611;-54
2022/09/27 04:20:43;;;;;;;0.00;0.00;;;18.40;99.90;;;18.55;53.77;99298.53;4893990;28;96901;-52
2022/09/27 04:23:09;;;;;;;0.00;0.00;;;18.50;99.90;;;18.58;53.58;99299.06;4894496;28;97268;-50
2022/09/27 04:25:35;;;;;;;0.10;0.07;;;18.50;99.90;;;18.61;53.72;99303.28;4894365;28;98865;-56
2022/09/27 04:28:01;;;;;;;0.10;0.00;;;18.50;99.90;;;18.61;53.32;99309.47;4892498;28;97287;-52
2022/09/27 04:30:28;;;;;;;0.00;0.00;;;18.50;99.90;;;18.57;53.53;99297.41;4894812;28;97087;-54
2022/09/27 04:32:54;;;;;;;0.00;0.00;;;18.40;99.90;;;18.64;53.66;99303.03;4889688;28;97452;-54
2022/09/27 04:38:04;;;;;;;0.00;0.00;;;18.50;99.90;;;18.56;51.60;99301.03;4892635;28;96964;-51
2022/09/27 04:40:33;;;;;;;0.00;0.00;;;18.40;99.90;;;18.54;53.18;99311.03;4898316;28;97243;-53
2022/09/27 04:42:59;;;;;;;0.00;0.00;;;18.40;99.90;;;18.55;53.53;99304.69;4883600;28;98054;-51
2022/09/27 04:45:25;;;;;;;0.00;0.00;;;18.40;99.90;;;18.53;53.73;99312.00;4892973;28;97496;-54
2022/09/27 04:47:51;;;;;;;0.20;0.20;;;18.30;99.90;;;18.58;53.32;99308.91;4892257;28;97226;-53
2022/09/27 04:50:19;;;;;;;0.00;0.00;;;18.40;99.90;;;18.55;53.61;99314.53;4892754;28;96945;-53
2022/09/27 04:52:51;;;;;;;0.07;0.00;;;18.30;99.90;;;18.47;53.38;99312.53;4895103;28;96825;-52
2022/09/27 04:55:17;;;;;;;0.00;0.00;;;18.20;99.90;;;18.50;53.43;99317.59;4890884;28;97120;-52
2022/09/27 04:57:43;;;;;;;0.00;0.00;;;18.30;99.90;;;18.50;53.40;99322.94;4895111;28;98084;-51
2022/09/27 05:00:10;;;;;;;0.30;0.13;;;18.30;99.90;;;18.54;53.19;99324.38;4889565;28;97592;-53
2022/09/27 05:02:36;;;;;;;0.10;0.03;;;18.40;99.90;;;18.52;51.90;99321.00;4899021;28;97106;-53
2022/09/27 05:05:02;;;;;;;0.00;0.00;;;18.40;99.90;;;18.47;53.58;99328.56;4884675;28;97509;-53
2022/09/27 05:07:28;;;;;;;0.60;0.10;;;18.20;99.90;;;18.47;52.83;99328.56;4903760;28;97503;-52
2022/09/27 05:09:55;;;;;;;0.60;0.10;;;18.20;99.90;;;18.44;52.89;99340.38;4893891;28;99029;-52
2022/09/27 05:12:21;;;;;;;0.00;0.00;;;18.20;99.90;;;18.39;53.24;99336.41;4902742;28;96905;-51
2022/09/27 05:14:47;;;;;;;0.00;0.00;;;18.10;99.90;;;18.30;53.32;99337.22;4909619;28;96870;-54
2022/09/27 05:17:13;;;;;;;0.10;0.10;;;17.90;99.90;;;18.26;53.46;99341.16;4895634;28;97129;-51
2022/09/27 05:19:39;;;;;;;0.53;0.30;;;17.90;99.90;;;18.22;53.89;99337.03;4896047;28;97101;-52
2022/09/27 05:22:05;;;;;;;0.00;0.00;;;17.80;99.90;;;18.24;53.81;99340.44;4901241;28;97393;-51
2022/09/27 05:24:32;;;;;;;0.00;0.00;;;17.90;99.90;;;18.14;52.95;99337.72;4902366;28;97561;-55
2022/09/27 05:27:01;;;;;;;0.30;0.10;;;17.80;99.90;;;18.16;54.04;99341.09;4899319;28;97119;-50
2022/09/27 05:29:28;;;;;;;0.00;0.00;;;17.90;99.90;;;18.20;54.15;99344.34;4898693;28;97208;-51
2022/09/27 05:31:53;;;;;;;0.00;0.00;;;17.90;99.90;;;18.19;54.14;99353.34;4904624;28;97342;-54
2022/09/27 05:34:19;;;;;;;0.10;0.00;;;18.00;99.90;;;18.20;54.04;99353.19;4902962;28;97407;-52
2022/09/27 05:36:48;;;;;;;0.00;0.00;;;18.00;99.90;;;18.26;53.88;99357.16;4901069;28;96878;-50
2022/09/27 05:39:18;;;;;;;0.30;0.10;;;18.10;99.90;;;18.33;53.87;99355.63;4895668;28;96811;-53
2022/09/27 05:41:45;;;;;;;0.00;0.00;;;18.20;99.90;;;18.34;53.51;99360.00;4894203;28;97260;-51
2022/09/27 05:44:14;;;;;;;0.00;0.00;;;18.20;99.90;;;18.32;52.98;99377.97;4900762;28;97246;-55
2022/09/27 05:46:40;;;;;;;0.03;0.03;;;18.20;99.90;;;18.33;53.47;99374.31;4898180;28;97077;-54
2022/09/27 05:49:06;;;;;;;0.00;0.00;;;18.20;99.90;;;18.29;53.60;99383.56;4894122;28;97144;-52
2022/09/27 05:51:31;;;;;;;0.00;0.00;;;18.10;99.90;;;18.29;53.66;99380.91;4893363;28;97526;-51
2022/09/27 05:53:57;;;;;;;0.20;0.10;;;18.10;99.90;;;18.31;53.44;99386.97;4894624;28;100823;-50
2022/09/27 05:56:26;;;;;;;0.00;0.00;;;18.20;99.90;;;18.33;52.77;99393.00;4900229;28;99199;-55
2022/09/27 05:58:52;;;;;;;0.00;0.00;;;18.30;99.90;;;18.20;51.30;99389.72;4894319;28;97365;-53
2022/09/27 06:01:18;;;;;;;0.00;0.00;;;18.20;99.90;;;18.22;52.45;99391.25;4893459;28;99952;-54
2022/09/27 06:03:44;;;;;;;0.00;0.00;;;18.10;99.90;;;18.24;53.08;99396.50;4896866;28;98828;-53
2022/09/27 06:06:10;;;;;;;1.90;0.10;;;18.10;99.90;;;18.29;53.38;99387.09;4895320;28;97037;-54
2022/09/27 06:08:38;;;;;;;0.00;0.00;;;18.20;99.90;;;18.29;53.26;99394.25;4896879;28;97233;-52
2022/09/27 06:11:11;;;;;;;0.17;0.10;;;18.20;99.90;;;18.20;52.98;99384.38;4889127;28;97327;-50
2022/09/27 06:13:38;;;;;;;0.00;0.00;;;18.10;99.90;;;18.25;53.76;99382.16;4897627;28;97295;-53
2022/09/27 06:16:06;;;;;;;0.00;0.00;;;18.10;99.90;;;18.18;53.77;99386.34;4892426;28;97823;-53
2022/09/27 06:18:32;;;;;;;0.00;0.00;;;18.00;99.90;;;18.21;53.07;99380.72;4893336;28;97187;-51
2022/09/27 06:20:59;;;;;;;0.00;0.00;;;18.10;99.90;;;18.20;53.85;99381.69;4893937;28;97448;-51
2022/09/27 06:23:26;;;;;;;0.00;0.00;;;18.10;99.90;;;18.19;53.76;99385.34;4898478;28;98720;-51
2022/09/27 06:25:53;;;;;;;0.00;0.00;;;18.00;99.90;;;18.16;53.32;99385.63;4893243;28;97396;-52
2022/09/27 06:28:20;;;;;;;0.00;0.00;;;18.00;99.90;;;18.20;53.58;99390.56;4883344;28;97095;-53
2022/09/27 06:30:49;;;;;;;0.03;0.00;;;18.10;99.90;;;18.25;53.29;99398.19;4889990;28;97528;-49
2022/09/27 06:33:18;;;;;;;0.00;0.00;;;18.10;99.90;;;18.30;53.23;99395.94;4909880;28;100212;-53
2022/09/27 06:35:45;;;;;;;0.03;0.00;;;18.10;99.90;;;18.21;53.36;99391.41;4898252;28;97256;-54
2022/09/27 06:38:14;;;;;;;0.03;0.00;;;18.00;99.90;;;18.28;52.77;99392.56;4896426;28;97123;-53
2022/09/27 06:40:44;;;;;;;0.00;0.00;;;18.10;99.90;;;18.19;52.99;99396.03;4895240;28;97300;-55
2022/09/27 06:43:16;;;;;;;0.13;0.00;;;17.90;99.90;;;18.01;50.58;99396.66;4889953;28;97416;-51
2022/09/27 06:45:42;;;;;;;0.00;0.00;;;17.70;99.90;;;18.04;53.91;99395.53;4898689;28;96921;-54
2022/09/27 06:48:11;;;;;;;0.13;0.13;;;17.50;99.90;;;18.16;53.79;99401.63;4895124;28;97490;-53
2022/09/27 06:50:40;;;;;;;0.00;0.00;;;17.80;99.90;;;18.23;53.19;99405.47;4897255;28;97411;-54
2022/09/27 06:53:09;;;;;;;0.10;0.10;;;18.00;99.90;;;18.32;53.31;99399.31;4893047;28;97454;-55
2022/09/27 06:55:36;;;;;;;0.07;0.00;;;18.10;99.90;;;18.37;51.90;99408.63;4900394;28;97704;-55
2022/09/27 07:00:52;;;;;;;0.03;0.03;;;18.40;99.90;;;18.48;51.84;99426.34;4889811;28;97274;-56
2022/09/27 07:03:21;;;;;;;0.00;0.00;;;18.40;99.90;;;18.48;53.01;99425.50;4889199;28;100369;-54
2022/09/27 07:05:59;;;;;;;0.00;0.00;;;18.30;99.90;;;18.52;52.50;99425.13;4896904;28;97530;-56
2022/09/27 07:08:27;;;;;;;0.00;0.00;;;18.40;99.90;;;18.57;52.68;99425.56;4900264;28;97295;-54
2022/09/27 07:11:01;;;;;;;0.10;0.10;;;18.50;99.90;;;18.62;52.48;99442.00;4902012;28;101901;-60
2022/09/27 07:13:33;;;;;;;0.00;0.00;;;18.50;99.90;;;18.61;52.15;99432.31;4899337;28;103693;-50
2022/09/27 07:16:00;;;;;;;0.00;0.00;;;18.50;99.90;;;18.61;52.12;99443.00;4894994;28;97311;-53
2022/09/27 07:18:26;;;;;;;2.10;0.40;;;18.50;99.90;;;18.65;52.32;99448.94;4901189;28;96719;-54
2022/09/27 07:20:53;;;;;;;0.40;0.10;;;18.60;99.90;;;18.66;52.37;99445.28;4895524;28;96850;-51
2022/09/27 07:23:19;;;;;;;0.20;0.00;;;18.60;99.90;;;18.53;51.76;99453.53;4892395;28;101587;-55
2022/09/27 07:25:46;;;;;;;0.30;0.20;;;18.40;99.90;;;18.51;52.71;99459.94;4896541;28;97144;-57
2022/09/27 07:28:16;;;;;;;0.30;0.30;;;18.30;99.90;;;18.53;52.49;99458.88;4889783;28;97462;-53
2022/09/27 07:30:42;;;;;;;0.00;0.00;;;18.40;99.90;;;18.51;51.77;99458.13;4891550;28;97209;-55
2022/09/27 07:33:09;;;;;;;0.00;0.00;;;18.40;99.90;;;18.48;52.06;99463.75;4893034;28;97475;-55
2022/09/27 07:35:39;;;;;;;0.20;0.13;;;18.40;99.90;;;18.55;52.62;99459.56;4899973;28;97516;-50
2022/09/27 07:38:09;;;;;;;0.00;0.00;;;18.40;99.90;;;18.63;52.41;99461.53;4891298;28;97990;-53
2022/09/27 07:40:39;;;;;;;0.00;0.00;;;18.50;99.90;;;18.67;52.17;99463.88;4900344;28;97358;-55
2022/09/27 07:43:07;;;;;;;0.00;0.00;;;18.60;99.90;;;18.67;51.44;99463.03;4890479;28;97007;-54
2022/09/27 07:45:33;;;;;;;0.00;0.00;;;18.60;99.90;;;18.55;50.06;99459.56;4890680;28;97227;-55
2022/09/27 07:47:59;;;;;;;0.00;0.00;;;18.40;99.90;;;18.58;48.82;99469.97;4894661;28;97052;-54
2022/09/27 07:50:25;;;;;;;0.00;0.00;;;18.50;99.90;;;18.63;52.01;99466.88;4897116;28;97100;-53
2022/09/27 07:52:51;;;;;;;0.20;0.20;;;18.40;99.90;;;18.69;52.36;99472.59;4894452;28;97736;-51
2022/09/27 07:55:18;;;;;;;0.03;0.03;;;18.60;99.90;;;18.64;52.32;99468.59;4888262;28;97100;-54
2022/09/27 07:57:44;;;;;;;0.00;0.00;;;18.50;99.90;;;18.60;48.90;99473.34;4896982;28;97025;-53
2022/09/27 08:00:15;;;;;;;0.00;0.00;;;18.50;99.90;;;18.62;52.48;99476.72;4888631;28;97304;-52
2022/09/27 08:02:42;;;;;;;0.00;0.00;;;18.50;99.90;;;18.55;48.82;99477.41;4889772;28;97684;-52
2022/09/27 08:05:09;;;;;;;0.00;0.00;;;18.40;99.90;;;18.56;52.43;99477.28;4886647;28;97536;-52
2022/09/27 08:07:36;;;;;;;0.10;0.00;;;18.30;99.90;;;18.58;51.27;99480.66;4896528;28;97307;-53
2022/09/27 08:10:02;;;;;;;0.17;0.00;;;18.40;99.90;;;18.57;52.01;99478.13;4885892;28;96972;-55
2022/09/27 08:12:28;;;;;;;0.17;0.17;;;18.40;99.90;;;18.54;49.19;99489.06;4896792;28;98427;-53
2022/09/27 08:14:57;;;;;;;0.00;0.00;;;18.40;99.90;;;18.57;51.81;99495.00;4891894;28;98452;-56
2022/09/27 08:17:23;;;;;;;0.00;0.00;;;18.40;99.90;;;18.66;52.40;99490.69;4909810;28;97559;-53
2022/09/27 08:19:49;;;;;;;0.00;0.00;;;18.50;99.90;;;18.60;52.25;99494.72;4893666;28;99384;-55
2022/09/27 08:22:15;;;;;;;0.00;0.00;;;18.40;99.90;;;18.67;52.24;99495.06;4896139;28;96953;-51
2022/09/27 08:24:41;;;;;;;0.00;0.00;;;18.50;99.90;;;18.72;51.95;99487.50;4893798;28;97054;-53
2022/09/27 08:27:07;;;;;;;0.00;0.00;;;18.60;99.90;;;18.73;51.73;99495.38;4902790;28;97004;-53
2022/09/27 08:29:36;;;;;;;0.20;0.00;;;18.60;99.90;;;18.70;51.92;99500.97;4897204;28;102519;-53
2022/09/27 08:32:02;;;;;;;0.10;0.00;;;18.60;99.90;;;18.70;51.90;99506.31;4890062;28;98631;-54
2022/09/27 08:34:28;;;;;;;0.00;0.00;;;18.50;99.90;;;18.67;52.15;99500.41;4894411;28;97485;-52
2022/09/27 08:36:55;;;;;;;0.00;0.00;;;18.50;99.90;;;18.69;52.21;99509.97;4894935;28;97161;-55
2022/09/27 08:39:21;;;;;;;0.00;0.00;;;18.50;99.90;;;18.61;52.08;99501.75;4903683;28;96781;-55
2022/09/27 08:42:28;;;;;;;0.10;0.10;;;18.40;99.90;;;18.60;52.22;99505.41;4899796;28;97267;-53
2022/09/27 08:45:07;;;;;;;0.10;0.10;;;18.40;99.90;;;18.55;52.14;99512.13;4892542;28;101897;-56
2022/09/27 08:47:43;;;;;;;0.17;0.17;;;18.40;99.90;;;18.60;52.47;99508.06;4897845;28;97224;-53
2022/09/27 08:50:36;;;;;;;0.00;0.00;;;18.50;99.90;;;18.47;52.41;99520.78;4889737;28;97161;-49
2022/09/27 08:53:32;;;;;;;0.00;0.00;;;18.30;99.90;;;18.49;52.07;99517.97;4891049;28;97073;-54
2022/09/27 08:56:02;;;;;;;0.07;0.07;;;18.40;99.90;;;18.48;50.02;99517.13;4895619;28;97287;-55
2022/09/27 08:58:49;;;;;;;0.00;0.00;;;18.40;99.90;;;18.55;52.43;99518.31;4889046;28;97061;-55
2022/09/27 09:01:16;;;;;;;0.10;0.10;;;18.50;99.90;;;18.59;52.24;99509.03;4890331;28;97434;-55
2022/09/27 09:03:54;;;;;;;0.00;0.00;;;18.50;99.90;;;18.58;51.76;99507.34;4890609;28;96814;-52
2022/09/27 09:06:38;;;;;;;0.20;0.00;;;18.50;99.90;;;18.64;52.14;99506.84;4887425;28;100642;-53
2022/09/27 09:09:36;;;;;;;0.33;0.13;;;18.60;99.90;;;18.61;51.83;99516.91;4895189;28;97174;-55
2022/09/27 09:15:21;;;;;;;0.00;0.00;;;18.40;99.90;;;18.60;51.16;99504.56;4888622;28;97033;-53
2022/09/27 09:18:28;;;;;;;0.20;0.10;;;18.50;99.90;;;18.57;51.81;99511.00;4894537;28;97310;-53
2022/09/27 09:21:24;;;;;;;0.10;0.10;;;18.40;99.90;;;18.50;49.16;99499.16;4887217;28;97073;-56
2022/09/27 09:24:19;;;;;;;0.00;0.00;;;18.50;99.90;;;18.56;51.62;99503.97;4895075;28;98282;-54
2022/09/27 09:27:11;;;;;;;0.00;0.00;;;18.50;99.90;;;18.50;50.38;99493.81;4887714;28;101930;-55
2022/09/27 09:29:58;;;;;;;0.00;0.00;;;18.50;99.90;;;18.47;51.39;99503.91;4888946;28;101820;-53
2022/09/27 09:32:27;;;;;;;0.00;0.00;;;18.40;99.90;;;18.40;50.52;99508.97;4885791;28;99647;-54
2022/09/27 09:35:01;;;;;;;1.60;0.50;;;18.40;99.90;;;18.52;52.37;99497.22;4903202;28;99215;-60
2022/09/27 09:37:50;;;;;;;0.10;0.10;;;18.50;99.90;;;18.42;49.78;99496.31;4883936;28;102990;-54
2022/09/27 09:40:43;;;;;;;0.00;0.00;;;18.40;99.90;;;18.35;51.57;99501.31;4902925;28;96582;-51
2022/09/27 09:44:00;;;;;;;0.10;0.00;;;18.30;99.90;;;18.53;52.00;99495.41;4891149;28;97654;-51
2022/09/27 09:46:41;;;;;;;0.10;0.10;;;18.50;99.90;;;18.53;51.87;99498.06;4893608;28;97222;-53
2022/09/27 09:49:29;;;;;;;0.53;0.10;;;18.50;99.90;;;18.44;51.53;99489.88;4890508;28;97237;-53
2022/09/27 09:52:05;;;;;;;0.00;0.00;;;18.40;99.90;;;18.51;51.87;99492.84;4900100;28;97138;-55
2022/09/27 09:54:50;;;;;;;0.00;0.00;;;18.50;99.90;;;18.41;51.55;99491.97;4892292;28;97225;-53
2022/09/27 09:57:43;;;;;;;0.00;0.00;;;18.40;99.90;;;18.42;51.91;99499.00;4899477;28;97683;-52
2022/09/27 10:00:17;;;;;;;0.00;0.00;;;18.40;99.90;;;18.20;50.27;99485.78;4889311;28;97164;-54
2022/09/27 10:02:45;;;;;;;2.93;0.20;;;18.10;99.90;;;18.37;52.25;99490.50;4895246;28;102811;-53
2022/09/27 10:05:19;;;;;;;0.10;0.10;;;18.20;99.90;;;18.35;52.05;99479.13;4894805;28;99440;-54
2022/09/27 10:07:49;;;;;;;1.23;0.10;;;18.30;99.90;;;18.41;51.81;99478.63;4903723;28;97415;-53
2022/09/27 10:10:17;;;;;;;0.00;0.00;;;18.40;99.90;;;18.47;51.74;99478.06;4892401;28;97442;-54
2022/09/27 10:12:45;;;;;;;0.30;0.10;;;18.40;99.90;;;18.46;51.64;99480.88;4899576;28;99145;-51
2022/09/27 10:15:18;;;;;;;0.10;0.10;;;18.40;99.90;;;18.47;51.17;99478.06;4880684;28;97466;-54
2022/09/27 10:17:55;;;;;;;0.20;0.20;;;18.50;99.90;;;18.46;51.76;99471.03;4894860;28;97144;-53
2022/09/27 10:20:24;;;;;;;0.00;0.00;;;18.40;99.90;;;18.36;51.22;99480.81;4892941;28;101653;-53
2022/09/27 10:22:54;;;;;;;0.07;0.07;;;18.30;99.90;;;18.44;49.94;99478.34;4896030;28;97038;-53
2022/09/27 10:25:20;;;;;;;0.00;0.00;;;18.40;99.90;;;18.35;50.17;99479.13;4892213;28;97304;-56
2022/09/27 10:27:51;;;;;;;0.00;0.00;;;18.40;99.90;;;18.36;51.55;99475.47;4896790;28;97395;-56
2022/09/27 10:30:37;;;;;;;0.10;0.10;;;18.30;99.90;;;18.39;50.49;99475.22;4891944;28;97932;-54
2022/09/27 10:33:17;;;;;;;0.10;0.10;;;18.40;99.90;;;18.21;51.07;99476.78;4892114;28;97058;-54
2022/09/27 10:35:48;;;;;;;0.07;0.07;;;18.20;99.90;;;18.18;51.91;99482.41;4896226;28;102562;-52
2022/09/27 10:38:34;;;;;;;0.00;0.00;;;18.20;99.90;;;18.28;51.75;99475.31;4898693;28;99739;-51
2022/09/27 10:41:38;;;;;;;0.03;0.00;;;18.30;99.90;;;18.32;52.08;99464.22;4892285;28;98988;-54
2022/09/27 10:44:18;;;;;;;0.10;0.10;;;18.30;99.90;;;18.44;52.13;99473.00;4897539;28;98903;-52
2022/09/27 10:46:49;;;;;;;0.60;0.10;;;18.40;99.90;;;18.50;51.47;99469.78;4896997;28;97323;-54
2022/09/27 10:49:30;;;;;;;0.00;0.00;;;18.50;99.90;;;18.59;51.48;99469.00;4886587;28;97346;-53
2022/09/27 10:52:23;;;;;;;0.00;0.00;;;18.60;99.90;;;18.64;51.56;99466.78;4894215;28;97083;-51